createdAt,value
2023-02-24T00:00:55.305Z,79.84
2023-02-24T00:02:04.738Z,79.99
2023-02-24T00:03:11.151Z,80.06
2023-02-24T00:04:13.782Z,79.94
2023-02-24T00:05:16.567Z,79.75
2023-02-24T00:06:18.473Z,79.88
2023-02-24T00:07:21.358Z,80.19
2023-02-24T00:08:23.112Z,80.08
2023-02-24T00:09:27.720Z,79.60
2023-02-24T00:10:29.973Z,79.44
2023-02-24T00:11:33.058Z,79.49
2023-02-24T00:12:35.026Z,79.57
2023-02-24T00:13:37.943Z,79.93
2023-02-24T00:14:41.473Z,79.62
2023-02-24T00:15:44.222Z,79.53
2023-02-24T00:16:47.157Z,79.86
2023-02-24T00:17:51.320Z,79.53
2023-02-24T00:18:53.147Z,79.42
2023-02-24T00:19:56.088Z,79.93
2023-02-24T00:21:03.960Z,79.36
2023-02-24T00:22:08.529Z,79.75
2023-02-24T00:23:10.334Z,79.64
2023-02-24T00:24:13.190Z,79.83
2023-02-24T00:25:15.105Z,79.49
2023-02-24T00:26:18.473Z,79.93
2023-02-24T00:27:20.283Z,79.49
2023-02-24T00:28:23.051Z,79.50
2023-02-24T00:29:26.207Z,79.70
2023-02-24T00:30:30.117Z,80.09
2023-02-24T00:31:33.596Z,79.48
2023-02-24T00:32:36.440Z,79.75
2023-02-24T00:33:41.017Z,79.94
2023-02-24T00:34:43.340Z,79.33
2023-02-24T00:35:47.352Z,79.42
2023-02-24T00:36:49.454Z,79.75
2023-02-24T00:37:54.374Z,79.88
2023-02-24T00:38:57.573Z,80.16
2023-02-24T00:40:00.339Z,79.61
2023-02-24T00:41:07.997Z,79.92
2023-02-24T00:42:12.349Z,79.84
2023-02-24T00:43:14.227Z,79.19
2023-02-24T00:44:16.973Z,79.87
2023-02-24T00:45:18.870Z,79.70
2023-02-24T00:46:25.675Z,80.01
2023-02-24T00:47:27.454Z,79.48
2023-02-24T00:48:31.634Z,79.74
2023-02-24T00:49:42.007Z,79.30
2023-02-24T00:50:44.934Z,79.75
2023-02-24T00:51:48.687Z,79.64
2023-02-24T00:52:52.454Z,79.63
2023-02-24T00:53:56.936Z,79.59
2023-02-24T00:54:59.835Z,79.61
2023-02-24T00:56:07.071Z,79.20
2023-02-24T00:57:10.240Z,79.39
2023-02-24T00:58:12.102Z,79.13
2023-02-24T00:59:16.647Z,79.65
2023-02-24T01:00:19.813Z,79.56
2023-02-24T01:01:24.321Z,79.73
2023-02-24T01:02:26.691Z,79.15
2023-02-24T01:03:29.733Z,79.32
2023-02-24T01:04:53.228Z,79.53
2023-02-24T01:05:56.541Z,79.49
2023-02-24T01:07:00.217Z,79.63
2023-02-24T01:08:03.273Z,79.48
2023-02-24T01:09:08.253Z,79.60
2023-02-24T01:10:12.544Z,78.90
2023-02-24T01:11:33.155Z,79.51
2023-02-24T01:12:38.681Z,79.48
2023-02-24T01:13:40.542Z,79.23
2023-02-24T01:14:45.567Z,79.56
2023-02-24T01:15:48.686Z,79.34
2023-02-24T01:16:51.595Z,79.48
2023-02-24T01:17:54.312Z,78.90
2023-02-24T01:18:56.460Z,79.27
2023-02-24T01:20:15.922Z,79.49
2023-02-24T01:21:19.872Z,79.65
2023-02-24T01:22:23.838Z,79.36
2023-02-24T01:23:26.027Z,79.50
2023-02-24T01:24:29.529Z,79.31
2023-02-24T01:25:31.352Z,79.54
2023-02-24T01:26:34.336Z,79.08
2023-02-24T01:27:37.148Z,79.47
2023-02-24T01:28:40.070Z,79.64
2023-02-24T01:29:41.869Z,79.17
2023-02-24T01:30:45.055Z,79.51
2023-02-24T01:31:49.517Z,79.23
2023-02-24T01:32:54.099Z,79.42
2023-02-24T01:33:56.394Z,79.19
2023-02-24T01:35:00.621Z,79.23
2023-02-24T01:36:09.413Z,79.47
2023-02-24T01:37:16.357Z,79.66
2023-02-24T01:38:23.047Z,79.65
2023-02-24T01:39:26.168Z,79.60
2023-02-24T01:40:29.151Z,79.64
2023-02-24T01:41:31.447Z,79.22
2023-02-24T01:42:33.321Z,79.28
2023-02-24T01:43:58.800Z,78.93
2023-02-24T01:45:06.636Z,79.13
2023-02-24T01:46:13.487Z,79.51
2023-02-24T01:47:16.206Z,79.08
2023-02-24T01:48:21.887Z,79.32
2023-02-24T01:49:29.418Z,79.56
2023-02-24T01:50:35.838Z,79.74
2023-02-24T01:51:41.964Z,79.58
2023-02-24T01:52:46.964Z,79.57
2023-02-24T01:53:49.383Z,79.45
2023-02-24T01:54:56.397Z,79.27
2023-02-24T01:55:59.345Z,79.54
2023-02-24T01:57:01.868Z,79.32
2023-02-24T01:58:07.228Z,79.23
2023-02-24T01:59:10.084Z,79.72
2023-02-24T02:00:32.604Z,79.68
2023-02-24T02:01:40.574Z,79.64
2023-02-24T02:02:47.396Z,79.72
2023-02-24T02:03:49.898Z,79.82
2023-02-24T02:04:57.273Z,79.65
2023-02-24T02:06:05.229Z,79.90
2023-02-24T02:07:09.967Z,79.77
2023-02-24T02:08:14.465Z,79.54
2023-02-24T02:09:16.513Z,79.20
2023-02-24T02:10:19.375Z,79.46
2023-02-24T02:11:22.847Z,79.49
2023-02-24T02:12:25.006Z,79.98
2023-02-24T02:13:28.893Z,79.22
2023-02-24T02:14:31.385Z,79.17
2023-02-24T02:15:37.912Z,79.82
2023-02-24T02:16:58.756Z,79.45
2023-02-24T02:18:06.834Z,79.47
2023-02-24T02:19:32.026Z,79.21
2023-02-24T02:21:05.048Z,79.71
2023-02-24T02:22:17.011Z,79.51
2023-02-24T02:23:33.895Z,79.75
2023-02-24T02:24:52.880Z,79.30
2023-02-24T02:26:09.646Z,79.86
2023-02-24T02:27:29.633Z,79.32
2023-02-24T02:28:45.437Z,79.37
2023-02-24T02:30:24.422Z,79.94
2023-02-24T02:31:50.787Z,79.86
2023-02-24T02:33:27.680Z,79.21
2023-02-24T02:34:38.068Z,79.54
2023-02-24T02:35:46.388Z,79.85
2023-02-24T02:36:55.793Z,79.56
2023-02-24T02:38:03.310Z,79.41
2023-02-24T02:39:13.009Z,79.72
2023-02-24T02:40:19.341Z,79.47
2023-02-24T02:41:28.378Z,80.08
2023-02-24T02:42:34.125Z,79.46
2023-02-24T02:43:41.422Z,79.72
2023-02-24T02:45:05.649Z,79.26
2023-02-24T02:46:14.903Z,79.27
2023-02-24T02:47:24.870Z,79.26
2023-02-24T02:48:31.166Z,79.78
2023-02-24T02:49:38.821Z,79.68
2023-02-24T02:50:45.914Z,78.99
2023-02-24T02:51:52.604Z,79.36
2023-02-24T02:52:58.371Z,79.47
2023-02-24T02:54:03.332Z,79.72
2023-02-24T02:55:08.311Z,79.21
2023-02-24T02:56:14.181Z,79.27
2023-02-24T02:57:18.778Z,79.86
2023-02-24T02:58:26.215Z,79.23
2023-02-24T02:59:29.921Z,79.28
2023-02-24T03:00:35.228Z,79.82
2023-02-24T03:01:39.103Z,79.67
2023-02-24T03:02:46.414Z,79.28
2023-02-24T03:03:51.524Z,79.18
2023-02-24T03:04:59.662Z,79.60
2023-02-24T03:06:04.119Z,79.63
2023-02-24T03:07:07.620Z,79.61
2023-02-24T03:08:11.553Z,79.57
2023-02-24T03:09:19.437Z,79.42
2023-02-24T03:10:27.830Z,79.61
2023-02-24T03:11:32.489Z,79.62
2023-02-24T03:12:34.397Z,79.68
2023-02-24T03:13:41.028Z,79.19
2023-02-24T03:14:50.985Z,79.52
2023-02-24T03:15:54.726Z,78.96
2023-02-24T03:16:58.971Z,79.38
2023-02-24T03:18:10.175Z,79.16
2023-02-24T03:19:13.849Z,79.02
2023-02-24T03:20:22.537Z,79.48
2023-02-24T03:21:29.383Z,78.92
2023-02-24T03:22:35.417Z,78.85
2023-02-24T03:23:40.895Z,79.20
2023-02-24T03:24:44.506Z,79.54
2023-02-24T03:25:58.688Z,79.56
2023-02-24T03:27:08.189Z,79.75
2023-02-24T03:28:16.595Z,79.50
2023-02-24T03:29:24.312Z,79.28
2023-02-24T03:30:32.462Z,79.61
2023-02-24T03:31:41.007Z,79.39
2023-02-24T03:32:54.952Z,79.40
2023-02-24T03:34:03.810Z,79.25
2023-02-24T03:35:11.085Z,79.06
2023-02-24T03:36:16.086Z,79.69
2023-02-24T03:37:25.494Z,79.40
2023-02-24T03:38:30.850Z,79.42
2023-02-24T03:39:33.213Z,80.01
2023-02-24T03:40:43.875Z,80.38
2023-02-24T03:41:56.135Z,80.11
2023-02-24T03:43:05.373Z,80.32
2023-02-24T03:44:11.021Z,80.66
2023-02-24T03:45:16.285Z,80.66
2023-02-24T03:46:18.581Z,80.47
2023-02-24T03:47:21.807Z,80.27
2023-02-24T03:48:25.171Z,80.75
2023-02-24T03:49:28.264Z,80.45
2023-02-24T03:50:32.097Z,80.73
2023-02-24T03:51:39.648Z,80.68
2023-02-24T03:52:47.386Z,81.16
2023-02-24T03:54:01.778Z,81.35
2023-02-24T03:55:21.285Z,81.18
2023-02-24T03:56:30.180Z,81.19
2023-02-24T03:57:54.718Z,81.19
2023-02-24T03:59:25.167Z,81.78
2023-02-24T04:00:35.274Z,82.04
2023-02-24T04:01:44.572Z,81.80
2023-02-24T04:02:51.123Z,81.99
2023-02-24T04:04:00.316Z,81.54
2023-02-24T04:05:24.411Z,82.17
2023-02-24T04:06:35.829Z,81.95
2023-02-24T04:07:43.965Z,82.20
2023-02-24T04:08:48.817Z,82.20
2023-02-24T04:09:58.140Z,81.58
2023-02-24T04:11:05.185Z,81.99
2023-02-24T04:12:17.217Z,82.15
2023-02-24T04:13:28.300Z,82.23
2023-02-24T04:14:35.908Z,82.14
2023-02-24T04:15:43.679Z,81.86
2023-02-24T04:16:54.128Z,83.10
2023-02-24T04:17:57.666Z,82.60
2023-02-24T04:19:05.957Z,83.62
2023-02-24T04:20:13.494Z,83.22
2023-02-24T04:21:22.723Z,83.40
2023-02-24T04:22:26.602Z,83.73
2023-02-24T04:23:33.019Z,84.03
2023-02-24T04:24:36.338Z,84.54
2023-02-24T04:25:39.945Z,84.92
2023-02-24T04:27:02.234Z,85.13
2023-02-24T04:28:10.057Z,85.05
2023-02-24T04:29:19.533Z,85.63
2023-02-24T04:30:23.897Z,85.75
2023-02-24T04:31:27.611Z,85.43
2023-02-24T04:32:31.603Z,86.05
2023-02-24T04:33:33.793Z,86.02
2023-02-24T04:34:37.530Z,85.84
2023-02-24T04:35:40.487Z,86.17
2023-02-24T04:36:49.456Z,86.63
2023-02-24T04:37:52.528Z,86.37
2023-02-24T04:38:56.784Z,86.82
2023-02-24T04:39:58.729Z,86.44
2023-02-24T04:41:04.430Z,86.77
2023-02-24T04:42:06.683Z,86.71
2023-02-24T04:43:09.735Z,87.07
2023-02-24T04:44:11.701Z,86.89
2023-02-24T04:45:16.471Z,86.95
2023-02-24T04:46:18.921Z,86.81
2023-02-24T04:47:22.277Z,86.71
2023-02-24T04:48:24.028Z,87.54
2023-02-24T04:49:27.035Z,87.24
2023-02-24T04:50:30.718Z,87.18
2023-02-24T04:51:33.964Z,87.23
2023-02-24T04:52:35.757Z,88.04
2023-02-24T04:53:38.803Z,87.83
2023-02-24T04:54:44.479Z,87.81
2023-02-24T04:55:49.246Z,87.92
2023-02-24T04:56:51.781Z,88.21
2023-02-24T04:57:54.841Z,88.51
2023-02-24T04:58:57.001Z,87.85
2023-02-24T04:59:59.828Z,88.27
2023-02-24T05:01:08.735Z,88.09
2023-02-24T05:02:13.220Z,88.80
2023-02-24T05:03:16.769Z,89.12
2023-02-24T05:04:19.778Z,88.55
2023-02-24T05:05:25.503Z,89.02
2023-02-24T05:06:28.378Z,89.48
2023-02-24T05:07:30.152Z,89.52
2023-02-24T05:08:33.925Z,89.51
2023-02-24T05:09:35.984Z,89.58
2023-02-24T05:10:43.407Z,89.04
2023-02-24T05:11:49.055Z,89.30
2023-02-24T05:12:51.004Z,89.84
2023-02-24T05:13:53.931Z,88.97
2023-02-24T05:14:55.663Z,89.96
2023-02-24T05:16:00.036Z,89.30
2023-02-24T05:17:03.302Z,89.27
2023-02-24T05:18:07.708Z,89.54
2023-02-24T05:19:28.488Z,89.89
2023-02-24T05:20:48.621Z,89.82
2023-02-24T05:21:51.561Z,89.84
2023-02-24T05:22:53.519Z,89.67
2023-02-24T05:23:59.145Z,89.96
2023-02-24T05:25:01.259Z,90.25
2023-02-24T05:26:08.562Z,90.37
2023-02-24T05:27:10.526Z,90.53
2023-02-24T05:28:13.669Z,89.86
2023-02-24T05:29:15.426Z,90.05
2023-02-24T05:30:19.088Z,90.76
2023-02-24T05:31:40.476Z,91.11
2023-02-24T05:32:42.798Z,91.11
2023-02-24T05:33:48.389Z,90.74
2023-02-24T05:34:51.805Z,91.39
2023-02-24T05:35:53.608Z,90.89
2023-02-24T05:36:56.374Z,91.21
2023-02-24T05:37:59.211Z,90.55
2023-02-24T05:39:07.774Z,91.03
2023-02-24T05:40:14.693Z,91.17
2023-02-24T05:41:19.054Z,91.11
2023-02-24T05:42:21.947Z,91.16
2023-02-24T05:43:26.177Z,91.26
2023-02-24T05:44:28.928Z,91.58
2023-02-24T05:45:31.505Z,91.41
2023-02-24T05:46:36.587Z,91.66
2023-02-24T05:47:40.103Z,91.87
2023-02-24T05:48:43.882Z,91.64
2023-02-24T05:49:48.050Z,91.68
2023-02-24T05:50:52.245Z,91.63
2023-02-24T05:51:57.461Z,91.33
2023-02-24T05:52:59.259Z,91.92
2023-02-24T05:54:04.696Z,91.33
2023-02-24T05:55:07.295Z,92.11
2023-02-24T05:56:10.239Z,91.73
2023-02-24T05:57:16.968Z,91.56
2023-02-24T05:58:19.778Z,91.76
2023-02-24T05:59:21.634Z,92.06
2023-02-24T06:00:25.930Z,92.25
2023-02-24T06:01:30.221Z,91.75
2023-02-24T06:02:37.575Z,91.62
2023-02-24T06:03:41.346Z,91.58
2023-02-24T06:04:53.792Z,91.68
2023-02-24T06:05:55.633Z,92.34
2023-02-24T06:06:58.378Z,91.80
2023-02-24T06:08:06.214Z,91.82
2023-02-24T06:09:10.944Z,92.54
2023-02-24T06:10:15.245Z,92.43
2023-02-24T06:11:19.229Z,92.57
2023-02-24T06:12:28.022Z,92.01
2023-02-24T06:13:29.803Z,92.62
2023-02-24T06:14:34.128Z,92.66
2023-02-24T06:15:37.491Z,92.55
2023-02-24T06:16:43.487Z,92.58
2023-02-24T06:17:45.407Z,92.75
2023-02-24T06:18:49.847Z,92.49
2023-02-24T06:19:54.198Z,92.83
2023-02-24T06:20:56.025Z,92.35
2023-02-24T06:22:01.620Z,92.55
2023-02-24T06:23:05.331Z,92.34
2023-02-24T06:24:14.393Z,92.33
2023-02-24T06:25:18.485Z,93.17
2023-02-24T06:26:21.627Z,92.51
2023-02-24T06:27:25.454Z,92.32
2023-02-24T06:28:28.420Z,92.89
2023-02-24T06:29:30.694Z,93.10
2023-02-24T06:30:33.554Z,93.11
2023-02-24T06:31:35.459Z,92.72
2023-02-24T06:32:38.520Z,92.59
2023-02-24T06:33:41.013Z,93.28
2023-02-24T06:34:43.744Z,92.97
2023-02-24T06:35:45.496Z,93.16
2023-02-24T06:36:49.030Z,92.58
2023-02-24T06:37:50.848Z,93.12
2023-02-24T06:38:54.206Z,92.60
2023-02-24T06:39:56.197Z,93.43
2023-02-24T06:40:59.036Z,92.88
2023-02-24T06:42:03.895Z,93.32
2023-02-24T06:43:10.102Z,93.32
2023-02-24T06:44:11.840Z,92.94
2023-02-24T06:45:15.219Z,92.96
2023-02-24T06:46:17.478Z,93.06
2023-02-24T06:47:22.633Z,93.21
2023-02-24T06:48:24.640Z,93.46
2023-02-24T06:49:27.722Z,93.31
2023-02-24T06:50:30.958Z,93.42
2023-02-24T06:51:33.701Z,93.67
2023-02-24T06:52:36.873Z,93.73
2023-02-24T06:53:43.557Z,94.01
2023-02-24T06:54:48.677Z,94.21
2023-02-24T06:56:14.845Z,93.90
2023-02-24T06:57:18.061Z,93.94
2023-02-24T06:58:24.195Z,93.67
2023-02-24T06:59:28.751Z,93.63
2023-02-24T07:00:38.830Z,94.12
2023-02-24T07:01:45.306Z,93.85
2023-02-24T07:02:48.248Z,93.93
2023-02-24T07:04:17.585Z,93.81
2023-02-24T07:05:24.170Z,93.98
2023-02-24T07:06:28.536Z,93.69
2023-02-24T07:07:31.308Z,93.95
2023-02-24T07:08:33.163Z,94.67
2023-02-24T07:09:36.450Z,93.96
2023-02-24T07:10:39.154Z,93.98
2023-02-24T07:11:46.611Z,94.60
2023-02-24T07:12:48.565Z,94.46
2023-02-24T07:13:54.537Z,94.58
2023-02-24T07:14:57.270Z,94.54
2023-02-24T07:16:00.217Z,94.96
2023-02-24T07:17:03.696Z,94.80
2023-02-24T07:18:07.188Z,94.52
2023-02-24T07:19:13.923Z,94.30
2023-02-24T07:20:26.138Z,94.22
2023-02-24T07:21:30.221Z,94.81
2023-02-24T07:22:33.062Z,95.06
2023-02-24T07:23:34.897Z,95.10
2023-02-24T07:24:40.487Z,94.59
2023-02-24T07:25:43.391Z,94.78
2023-02-24T07:26:52.030Z,95.45
2023-02-24T07:27:53.788Z,95.27
2023-02-24T07:28:58.066Z,95.73
2023-02-24T07:29:59.855Z,95.44
2023-02-24T07:31:08.403Z,95.65
2023-02-24T07:32:11.707Z,95.76
2023-02-24T07:33:14.242Z,94.97
2023-02-24T07:34:23.485Z,95.56
2023-02-24T07:35:25.681Z,95.16
2023-02-24T07:36:30.194Z,94.95
2023-02-24T07:37:34.828Z,95.52
2023-02-24T07:38:37.241Z,94.80
2023-02-24T07:39:42.892Z,94.66
2023-02-24T07:40:46.855Z,95.19
2023-02-24T07:41:49.993Z,94.99
2023-02-24T07:42:54.078Z,95.11
2023-02-24T07:43:59.622Z,94.91
2023-02-24T07:45:01.497Z,95.34
2023-02-24T07:46:09.182Z,95.54
2023-02-24T07:47:11.977Z,95.21
2023-02-24T07:48:15.635Z,95.23
2023-02-24T07:49:19.839Z,95.46
2023-02-24T07:50:23.719Z,95.81
2023-02-24T07:51:27.368Z,95.17
2023-02-24T07:52:32.483Z,95.71
2023-02-24T07:53:34.381Z,95.15
2023-02-24T07:54:39.275Z,95.81
2023-02-24T07:55:42.352Z,95.99
2023-02-24T07:56:48.825Z,95.80
2023-02-24T07:57:51.704Z,95.99
2023-02-24T07:58:59.224Z,95.50
2023-02-24T08:00:16.915Z,96.10
2023-02-24T08:01:23.750Z,96.24
2023-02-24T08:02:25.685Z,96.45
2023-02-24T08:03:30.159Z,96.11
2023-02-24T08:04:33.445Z,95.98
2023-02-24T08:05:36.497Z,96.49
2023-02-24T08:06:46.154Z,96.14
2023-02-24T08:07:50.495Z,97.10
2023-02-24T08:08:59.719Z,96.94
2023-02-24T08:10:14.231Z,97.21
2023-02-24T08:11:16.399Z,97.76
2023-02-24T08:12:21.728Z,96.60
2023-02-24T08:13:23.804Z,96.98
2023-02-24T08:14:32.710Z,97.26
2023-02-24T08:15:35.987Z,97.11
2023-02-24T08:16:40.597Z,97.42
2023-02-24T08:17:44.101Z,97.09
2023-02-24T08:18:48.993Z,96.81
2023-02-24T08:20:12.841Z,96.75
2023-02-24T08:21:16.607Z,97.95
2023-02-24T08:22:24.059Z,97.60
2023-02-24T08:23:26.781Z,96.85
2023-02-24T08:24:30.016Z,97.19
2023-02-24T08:25:36.521Z,97.00
2023-02-24T08:26:45.053Z,97.58
2023-02-24T08:28:06.708Z,97.35
2023-02-24T08:29:10.434Z,97.08
2023-02-24T08:30:23.375Z,96.94
2023-02-24T08:31:27.898Z,97.29
2023-02-24T08:32:34.085Z,97.32
2023-02-24T08:33:37.377Z,97.75
2023-02-24T08:34:39.510Z,97.10
2023-02-24T08:35:44.720Z,97.21
2023-02-24T08:36:55.742Z,97.29
2023-02-24T08:38:01.693Z,96.96
2023-02-24T08:39:04.877Z,97.30
2023-02-24T08:40:29.383Z,97.29
2023-02-24T08:41:45.876Z,97.21
2023-02-24T08:42:50.042Z,96.75
2023-02-24T08:43:52.828Z,97.62
2023-02-24T08:44:54.807Z,97.27
2023-02-24T08:45:59.481Z,97.32
2023-02-24T08:47:05.211Z,97.33
2023-02-24T08:48:18.294Z,97.22
2023-02-24T08:49:24.880Z,97.85
2023-02-24T08:50:31.314Z,97.60
2023-02-24T08:51:36.369Z,97.62
2023-02-24T08:52:40.183Z,97.97
2023-02-24T08:53:43.425Z,97.77
2023-02-24T08:54:49.222Z,97.77
2023-02-24T08:55:51.810Z,97.90
2023-02-24T08:56:56.850Z,97.87
2023-02-24T08:58:01.660Z,98.02
2023-02-24T08:59:06.388Z,97.77
2023-02-24T09:00:10.863Z,97.92
2023-02-24T09:01:18.991Z,97.41
2023-02-24T09:02:27.418Z,96.99
2023-02-24T09:03:30.108Z,97.77
2023-02-24T09:04:34.509Z,97.38
2023-02-24T09:05:39.076Z,97.89
2023-02-24T09:06:44.738Z,97.63
2023-02-24T09:07:54.524Z,97.44
2023-02-24T09:09:15.922Z,97.38
2023-02-24T09:10:20.298Z,97.50
2023-02-24T09:11:23.305Z,97.94
2023-02-24T09:12:29.002Z,97.70
2023-02-24T09:13:33.065Z,97.89
2023-02-24T09:14:37.528Z,97.42
2023-02-24T09:15:41.776Z,98.16
2023-02-24T09:17:02.113Z,97.98
2023-02-24T09:18:08.319Z,97.84
2023-02-24T09:19:40.369Z,97.82
2023-02-24T09:21:16.080Z,97.98
2023-02-24T09:22:31.374Z,98.02
2023-02-24T09:23:45.845Z,98.53
2023-02-24T09:24:50.965Z,98.27
2023-02-24T09:25:54.334Z,98.02
2023-02-24T09:26:58.611Z,98.42
2023-02-24T09:28:08.398Z,98.49
2023-02-24T09:29:33.064Z,97.92
2023-02-24T09:30:37.578Z,98.49
2023-02-24T09:31:55.280Z,98.38
2023-02-24T09:33:01.240Z,98.57
2023-02-24T09:34:05.612Z,98.51
2023-02-24T09:35:07.914Z,98.91
2023-02-24T09:36:13.735Z,98.69
2023-02-24T09:37:24.923Z,98.79
2023-02-24T09:38:57.803Z,98.15
2023-02-24T09:40:14.628Z,98.28
2023-02-24T09:41:33.662Z,97.92
2023-02-24T09:42:46.416Z,98.37
2023-02-24T09:43:59.844Z,98.38
2023-02-24T09:45:04.987Z,98.08
2023-02-24T09:46:14.729Z,97.93
2023-02-24T09:47:30.948Z,98.43
2023-02-24T09:48:44.632Z,98.40
2023-02-24T09:49:56.387Z,98.52
2023-02-24T09:51:05.194Z,98.55
2023-02-24T09:52:16.852Z,98.02
2023-02-24T09:53:19.893Z,98.71
2023-02-24T09:54:24.436Z,98.17
2023-02-24T09:55:35.753Z,98.73
2023-02-24T09:56:42.644Z,98.54
2023-02-24T09:58:12.036Z,98.45
2023-02-24T09:59:26.294Z,98.36
2023-02-24T10:00:33.545Z,98.94
2023-02-24T10:01:47.861Z,98.88
2023-02-24T10:03:00.188Z,98.62
2023-02-24T10:04:20.231Z,98.46
2023-02-24T10:05:28.760Z,98.68
2023-02-24T10:06:36.564Z,98.51
2023-02-24T10:07:41.807Z,98.65
2023-02-24T10:08:50.725Z,99.01
2023-02-24T10:10:02.278Z,98.76
2023-02-24T10:11:08.552Z,98.80
2023-02-24T10:12:17.209Z,98.50
2023-02-24T10:13:30.264Z,98.17
2023-02-24T10:14:43.704Z,98.23
2023-02-24T10:16:09.267Z,98.58
2023-02-24T10:17:30.491Z,98.50
2023-02-24T10:18:37.918Z,98.41
2023-02-24T10:19:41.580Z,98.65
2023-02-24T10:20:45.702Z,98.18
2023-02-24T10:22:02.825Z,98.18
2023-02-24T10:23:09.738Z,98.02
2023-02-24T10:24:15.691Z,98.16
2023-02-24T10:25:36.650Z,98.46
2023-02-24T10:26:59.531Z,98.76
2023-02-24T10:28:13.219Z,98.99
2023-02-24T10:29:23.009Z,98.68
2023-02-24T10:30:41.056Z,98.56
2023-02-24T10:31:48.019Z,98.70
2023-02-24T10:32:53.383Z,98.77
2023-02-24T10:33:58.706Z,99.02
2023-02-24T10:35:01.521Z,99.38
2023-02-24T10:36:11.489Z,99.17
2023-02-24T10:37:27.624Z,99.75
2023-02-24T10:38:34.076Z,99.68
2023-02-24T10:39:36.980Z,99.56
2023-02-24T10:40:46.763Z,99.71
2023-02-24T10:41:57.204Z,99.54
2023-02-24T10:43:10.440Z,99.26
2023-02-24T10:44:16.420Z,98.47
2023-02-24T10:45:24.751Z,98.42
2023-02-24T10:46:41.068Z,98.73
2023-02-24T10:47:46.387Z,98.37
2023-02-24T10:49:00.428Z,98.22
2023-02-24T10:50:05.287Z,97.73
2023-02-24T10:51:20.092Z,98.13
2023-02-24T10:52:37.568Z,98.06
2023-02-24T10:53:39.475Z,97.75
2023-02-24T10:55:05.105Z,98.24
2023-02-24T10:56:26.919Z,97.54
2023-02-24T10:57:42.618Z,96.78
2023-02-24T10:59:20.487Z,96.96
2023-02-24T11:00:51.609Z,97.56
2023-02-24T11:02:01.117Z,96.87
2023-02-24T11:03:10.436Z,97.29
2023-02-24T11:04:32.845Z,97.10
2023-02-24T11:05:44.388Z,97.03
2023-02-24T11:06:55.480Z,97.43
2023-02-24T11:08:10.933Z,97.61
2023-02-24T11:09:29.266Z,97.42
2023-02-24T11:10:43.018Z,96.81
2023-02-24T11:12:04.759Z,96.87
2023-02-24T11:13:25.205Z,97.63
2023-02-24T11:14:45.693Z,97.90
2023-02-24T11:16:07.600Z,98.33
2023-02-24T11:17:20.989Z,97.87
2023-02-24T11:18:24.798Z,97.63
2023-02-24T11:19:32.482Z,97.33
2023-02-24T11:20:48.455Z,97.18
2023-02-24T11:21:55.688Z,97.29
2023-02-24T11:22:57.848Z,96.37
2023-02-24T11:24:03.112Z,96.54
2023-02-24T11:25:07.524Z,96.72
2023-02-24T11:26:16.799Z,95.96
2023-02-24T11:27:21.860Z,96.06
2023-02-24T11:28:34.132Z,95.78
2023-02-24T11:29:45.058Z,94.60
2023-02-24T11:30:54.614Z,94.69
2023-02-24T11:32:11.636Z,94.44
2023-02-24T11:33:24.749Z,95.05
2023-02-24T11:34:33.267Z,94.75
2023-02-24T11:35:38.708Z,94.08
2023-02-24T11:36:46.164Z,92.67
2023-02-24T11:38:00.422Z,92.11
2023-02-24T11:39:19.267Z,92.84
2023-02-24T11:40:26.689Z,91.20
2023-02-24T11:41:31.228Z,90.95
2023-02-24T11:42:38.906Z,90.54
2023-02-24T11:43:43.600Z,90.67
2023-02-24T11:44:53.813Z,91.12
2023-02-24T11:46:01.185Z,91.83
2023-02-24T11:47:07.792Z,91.98
2023-02-24T11:48:15.975Z,91.73
2023-02-24T11:49:27.300Z,91.60
2023-02-24T11:50:36.124Z,90.90
2023-02-24T11:51:38.148Z,90.57
2023-02-24T11:52:46.913Z,90.75
2023-02-24T11:53:53.220Z,90.91
2023-02-24T11:54:58.662Z,90.18
2023-02-24T11:56:03.136Z,90.48
2023-02-24T11:57:09.322Z,89.91
2023-02-24T11:58:17.152Z,89.72
2023-02-24T11:59:23.258Z,89.98
2023-02-24T12:00:27.986Z,89.84
2023-02-24T12:01:33.716Z,90.89
2023-02-24T12:02:42.003Z,90.92
2023-02-24T12:03:54.658Z,91.29
2023-02-24T12:05:00.627Z,88.96
2023-02-24T12:06:10.892Z,90.46
2023-02-24T12:07:19.338Z,90.02
2023-02-24T12:08:26.806Z,88.56
2023-02-24T12:09:33.074Z,86.93
2023-02-24T12:10:37.810Z,88.33
2023-02-24T12:11:46.084Z,88.21
2023-02-24T12:12:52.793Z,88.28
2023-02-24T12:14:03.137Z,87.59
2023-02-24T12:15:15.553Z,87.70
2023-02-24T12:16:21.315Z,86.92
2023-02-24T12:17:29.249Z,86.01
2023-02-24T12:18:35.365Z,86.24
2023-02-24T12:19:44.578Z,85.16
2023-02-24T12:20:49.922Z,86.15
2023-02-24T12:21:53.714Z,84.50
2023-02-24T12:22:58.386Z,83.68
2023-02-24T12:24:21.277Z,83.99
2023-02-24T12:25:27.954Z,83.87
2023-02-24T12:26:42.585Z,84.03
2023-02-24T12:27:54.740Z,82.90
2023-02-24T12:29:20.045Z,81.06
2023-02-24T12:30:57.638Z,79.80
2023-02-24T12:32:06.596Z,81.65
2023-02-24T12:33:31.832Z,81.73
2023-02-24T12:34:43.376Z,82.28
2023-02-24T12:35:48.225Z,82.83
2023-02-24T12:37:07.597Z,81.74
2023-02-24T12:38:31.776Z,82.82
2023-02-24T12:39:40.234Z,79.58
2023-02-24T12:40:51.339Z,81.66
2023-02-24T12:42:01.198Z,82.01
2023-02-24T12:43:13.690Z,80.73
2023-02-24T12:44:24.194Z,80.99
2023-02-24T12:45:34.150Z,81.55
2023-02-24T12:46:38.133Z,82.13
2023-02-24T12:47:48.369Z,82.41
2023-02-24T12:49:15.552Z,82.08
2023-02-24T12:50:25.410Z,82.70
2023-02-24T12:51:30.668Z,83.10
2023-02-24T12:52:42.740Z,83.32
2023-02-24T12:53:49.774Z,83.99
2023-02-24T12:54:56.702Z,84.52
2023-02-24T12:56:05.039Z,84.87
2023-02-24T12:57:11.833Z,86.15
2023-02-24T12:58:18.690Z,87.05
2023-02-24T12:59:24.367Z,87.28
2023-02-24T13:00:56.157Z,87.36
2023-02-24T13:02:01.673Z,88.43
2023-02-24T13:03:09.500Z,88.67
2023-02-24T13:04:23.364Z,89.13
2023-02-24T13:05:31.030Z,89.81
2023-02-24T13:06:42.890Z,89.88
2023-02-24T13:07:59.945Z,90.02
2023-02-24T13:09:08.595Z,89.66
2023-02-24T13:10:20.283Z,90.09
2023-02-24T13:11:31.248Z,90.38
2023-02-24T13:12:37.535Z,90.01
2023-02-24T13:13:44.805Z,90.60
2023-02-24T13:14:48.662Z,91.02
2023-02-24T13:15:52.665Z,90.61
2023-02-24T13:17:05.312Z,90.52
2023-02-24T13:18:11.317Z,90.64
2023-02-24T13:19:22.460Z,90.67
2023-02-24T13:20:31.485Z,90.30
2023-02-24T13:21:34.168Z,90.42
2023-02-24T13:22:41.972Z,90.49
2023-02-24T13:23:53.461Z,90.52
2023-02-24T13:24:59.053Z,90.72
2023-02-24T13:26:01.038Z,90.93
2023-02-24T13:27:22.220Z,91.13
2023-02-24T13:28:26.110Z,91.43
2023-02-24T13:29:27.923Z,91.82
2023-02-24T13:30:41.492Z,91.21
2023-02-24T13:31:47.022Z,91.39
2023-02-24T13:32:59.958Z,90.61
2023-02-24T13:34:32.932Z,91.10
2023-02-24T13:35:37.517Z,91.00
2023-02-24T13:36:47.632Z,91.02
2023-02-24T13:37:49.789Z,90.84
2023-02-24T13:38:53.476Z,91.03
2023-02-24T13:39:55.763Z,91.04
2023-02-24T13:41:08.230Z,91.09
2023-02-24T13:42:23.674Z,91.20
2023-02-24T13:43:28.824Z,91.55
2023-02-24T13:44:31.887Z,91.33
2023-02-24T13:45:35.615Z,91.22
2023-02-24T13:46:52.041Z,91.13
2023-02-24T13:48:15.177Z,91.31
2023-02-24T13:49:25.136Z,91.35
2023-02-24T13:50:31.853Z,91.42
2023-02-24T13:51:47.606Z,91.41
2023-02-24T13:53:03.752Z,91.55
2023-02-24T13:54:17.761Z,91.60
2023-02-24T13:55:29.875Z,91.65
2023-02-24T13:56:38.944Z,91.80
2023-02-24T13:57:53.374Z,92.04
2023-02-24T13:59:08.492Z,92.33
2023-02-24T14:00:22.398Z,92.08
2023-02-24T14:01:34.282Z,91.83
2023-02-24T14:02:38.683Z,92.13
2023-02-24T14:03:44.174Z,91.95
2023-02-24T14:04:47.972Z,91.85
2023-02-24T14:05:51.396Z,91.97
2023-02-24T14:06:57.460Z,91.90
2023-02-24T14:07:59.554Z,92.05
2023-02-24T14:09:03.801Z,92.32
2023-02-24T14:10:15.953Z,92.14
2023-02-24T14:11:19.140Z,91.93
2023-02-24T14:12:24.502Z,91.86
2023-02-24T14:13:33.908Z,91.93
2023-02-24T14:14:35.793Z,92.23
2023-02-24T14:15:41.189Z,91.86
2023-02-24T14:16:48.078Z,91.96
2023-02-24T14:17:56.220Z,92.11
2023-02-24T14:19:01.665Z,92.33
2023-02-24T14:20:19.586Z,92.18
2023-02-24T14:21:24.406Z,92.39
2023-02-24T14:22:27.216Z,92.44
2023-02-24T14:23:31.561Z,92.44
2023-02-24T14:24:34.545Z,92.73
2023-02-24T14:25:40.518Z,92.78
2023-02-24T14:26:45.690Z,92.85
2023-02-24T14:27:49.992Z,92.88
2023-02-24T14:28:57.592Z,92.81
2023-02-24T14:30:00.601Z,92.76
2023-02-24T14:31:08.271Z,92.98